Time;durP1;ratioP1;P1;durP2;ratioP2;P2;SDS_P1;SDS_P2;PMS_P1;PMS_P2;Temp;Humidity;BMP_temperature;BMP_pressure;BME280_temperature;BME280_humidity;BME280_pressure;Samples;Min_cycle;Max_cycle;Signal;HPM_P1;HPM_P2
2023/04/13 00:00:15;;;;;;;;;;;;;;;9.12;58.20;98934.41;4452785;32;34826;-76
2023/04/13 00:02:44;;;;;;;;;;;;;;;9.08;59.33;98933.41;4452815;32;34921;-76
2023/04/13 00:05:12;;;;;;;;;;;;;;;9.68;57.09;98932.94;4452303;32;33663;-76
2023/04/13 00:07:39;;;;;;;;;;;;;;;10.35;55.33;98923.97;4451877;32;34172;-76
2023/04/13 00:10:08;;;;;;;;;;;;;;;10.40;54.74;98919.81;4468462;32;34286;-76
2023/04/13 00:12:36;;;;;;;;;;;;;;;9.98;55.48;98921.88;4461357;32;34655;-76
2023/04/13 00:15:04;;;;;;;;;;;;;;;9.79;56.47;98915.19;4461783;32;33679;-76
2023/04/13 00:17:36;;;;;;;;;;;;;;;9.73;55.66;98915.00;4448714;32;33355;-76
2023/04/13 00:20:10;;;;;;;;;;;;;;;9.46;56.69;98915.78;4447846;32;34432;-76
2023/04/13 00:22:39;;;;;;;;;;;;;;;9.91;55.53;98919.91;4468228;32;33510;-76
2023/04/13 00:25:06;;;;;;;;;;;;;;;9.88;55.40;98915.50;4468055;32;34307;-76
2023/04/13 00:27:34;;;;;;;;;;;;;;;10.18;55.09;98914.78;4467512;32;33193;-76
2023/04/13 00:30:01;;;;;;;;;;;;;;;10.17;55.25;98919.03;4461509;32;34185;-76
2023/04/13 00:32:28;;;;;;;;;;;;;;;10.61;54.54;98916.13;4462692;32;33920;-76
2023/04/13 00:34:56;;;;;;;;;;;;;;;10.54;54.85;98909.88;4451911;32;35241;-76
2023/04/13 00:37:23;;;;;;;;;;;;;;;10.66;54.28;98908.47;4465019;32;33148;-76
2023/04/13 00:39:52;;;;;;;;;;;;;;;11.09;52.75;98901.97;4465411;32;34340;-76
2023/04/13 00:42:21;;;;;;;;;;;;;;;10.31;54.86;98905.69;4465996;32;33889;-76
2023/04/13 00:44:48;;;;;;;;;;;;;;;10.67;54.08;98911.13;4466633;32;34835;-76
2023/04/13 00:47:16;;;;;;;;;;;;;;;9.70;56.00;98915.78;4464856;32;33071;-76
2023/04/13 00:49:43;;;;;;;;;;;;;;;9.68;57.09;98907.09;4455556;32;34238;-76
2023/04/13 00:52:12;;;;;;;;;;;;;;;8.95;59.82;98910.53;4466513;32;33822;-76
2023/04/13 00:54:39;;;;;;;;;;;;;;;9.50;58.87;98912.50;4466720;32;35099;-76
2023/04/13 00:57:06;;;;;;;;;;;;;;;9.53;58.87;98915.19;4442285;32;33887;-76
2023/04/13 00:59:34;;;;;;;;;;;;;;;9.20;59.76;98913.19;4469320;32;34440;-76
2023/04/13 01:02:04;;;;;;;;;;;;;;;9.37;59.61;98905.16;4457699;32;34256;-76
2023/04/13 01:04:32;;;;;;;;;;;;;;;9.45;59.14;98911.47;4469359;32;34753;-76
2023/04/13 01:07:07;;;;;;;;;;;;;;;9.95;57.77;98912.31;4468664;32;33507;-76
2023/04/13 01:09:39;;;;;;;;;;;;;;;10.48;56.18;98916.59;4456344;32;33816;-76
2023/04/13 01:12:11;;;;;;;;;;;;;;;10.57;55.43;98903.94;4455557;32;34056;-76
2023/04/13 01:14:44;;;;;;;;;;;;;;;10.60;55.17;98904.00;4468963;32;34856;-76
2023/04/13 01:17:14;;;;;;;;;;;;;;;10.67;54.91;98900.78;4455419;32;32870;-76
2023/04/13 01:19:46;;;;;;;;;;;;;;;10.63;54.85;98904.09;4455875;32;34310;-76
2023/04/13 01:22:14;;;;;;;;;;;;;;;10.35;56.27;98900.69;4455603;32;34852;-76
2023/04/13 01:24:52;;;;;;;;;;;;;;;10.54;55.96;98890.88;4453198;32;33817;-76
2023/04/13 01:27:28;;;;;;;;;;;;;;;10.86;55.21;98885.78;4469180;32;33158;-77
2023/04/13 01:29:57;;;;;;;;;;;;;;;10.69;56.46;98893.06;4468036;32;33949;-77
2023/04/13 01:32:24;;;;;;;;;;;;;;;10.70;56.51;98890.50;4457954;32;33891;-76
2023/04/13 01:34:51;;;;;;;;;;;;;;;11.07;55.56;98888.06;4469300;32;34097;-76
2023/04/13 01:37:19;;;;;;;;;;;;;;;11.13;55.38;98885.69;4455407;32;33755;-76
2023/04/13 01:39:47;;;;;;;;;;;;;;;10.99;55.97;98888.75;4469440;32;34196;-76
2023/04/13 01:42:16;;;;;;;;;;;;;;;10.59;57.47;98894.50;4469283;32;33529;-76
2023/04/13 01:44:44;;;;;;;;;;;;;;;10.32;58.02;98907.47;4470445;32;34098;-76
2023/04/13 01:47:14;;;;;;;;;;;;;;;10.17;58.30;98907.81;4469512;32;33398;-76
2023/04/13 01:49:45;;;;;;;;;;;;;;;9.87;58.88;98902.50;4456414;32;33493;-76
2023/04/13 01:52:13;;;;;;;;;;;;;;;10.77;56.34;98902.78;4438124;32;32586;-76
2023/04/13 01:54:40;;;;;;;;;;;;;;;10.92;56.04;98896.31;4454682;32;34931;-76
2023/04/13 01:57:11;;;;;;;;;;;;;;;11.08;55.89;98901.09;4454459;32;34061;-76
2023/04/13 01:59:39;;;;;;;;;;;;;;;11.23;55.55;98902.38;4457797;32;34103;-76
2023/04/13 02:02:15;;;;;;;;;;;;;;;11.45;55.18;98896.91;4450679;32;33856;-76
2023/04/13 02:04:43;;;;;;;;;;;;;;;11.50;54.97;98903.09;4464489;32;34561;-76
2023/04/13 02:07:11;;;;;;;;;;;;;;;11.41;54.86;98897.66;4456385;32;33572;-76
2023/04/13 02:09:39;;;;;;;;;;;;;;;11.34;54.58;98906.13;4469298;32;34868;-76
2023/04/13 02:12:06;;;;;;;;;;;;;;;11.41;54.40;98897.66;4468995;32;34074;-76
2023/04/13 02:14:37;;;;;;;;;;;;;;;11.41;54.25;98897.66;4469088;32;34865;-76
2023/04/13 02:17:04;;;;;;;;;;;;;;;11.28;54.49;98892.97;4469156;32;33803;-77
2023/04/13 02:19:33;;;;;;;;;;;;;;;11.42;54.05;98894.25;4469192;32;34199;-76
2023/04/13 02:22:02;;;;;;;;;;;;;;;10.96;55.41;98898.16;4469325;32;33967;-76
2023/04/13 02:24:29;;;;;;;;;;;;;;;11.13;55.28;98899.50;4466481;32;34293;-76
2023/04/13 02:26:56;;;;;;;;;;;;;;;10.70;56.69;98900.88;4469496;32;33035;-76
2023/04/13 02:29:24;;;;;;;;;;;;;;;10.82;56.59;98901.22;4468764;32;33929;-76
2023/04/13 02:31:51;;;;;;;;;;;;;;;10.30;58.39;98904.81;4469107;32;34461;-76
2023/04/13 02:34:18;;;;;;;;;;;;;;;10.32;59.62;98903.16;4468930;32;34029;-76
2023/04/13 02:36:46;;;;;;;;;;;;;;;9.35;62.08;98897.34;4469320;32;34150;-76
2023/04/13 02:39:13;;;;;;;;;;;;;;;9.57;62.12;98904.13;4469374;32;33966;-76
2023/04/13 02:41:41;;;;;;;;;;;;;;;9.20;63.74;98897.69;4463825;32;32491;-77
2023/04/13 02:44:12;;;;;;;;;;;;;;;9.03;63.83;98893.63;4469142;32;34257;-76
2023/04/13 02:46:40;;;;;;;;;;;;;;;9.31;64.71;98894.59;4473447;32;33435;-76
2023/04/13 02:49:08;;;;;;;;;;;;;;;9.83;63.33;98897.25;4455396;32;34047;-76
2023/04/13 02:51:35;;;;;;;;;;;;;;;10.61;60.73;98885.06;4469457;32;34058;-76
2023/04/13 02:54:03;;;;;;;;;;;;;;;11.00;59.45;98889.63;4469512;32;34637;-76
2023/04/13 02:56:34;;;;;;;;;;;;;;;11.03;59.19;98884.53;4460912;32;31108;-76
2023/04/13 02:59:02;;;;;;;;;;;;;;;11.00;59.22;98885.31;4469124;32;34158;-76
2023/04/13 03:01:30;;;;;;;;;;;;;;;10.80;59.86;98887.34;4470963;32;33876;-76
2023/04/13 03:03:57;;;;;;;;;;;;;;;10.62;60.81;98886.78;4469442;32;34324;-77
2023/04/13 03:06:25;;;;;;;;;;;;;;;10.47;61.50;98894.09;4469669;32;33826;-76
2023/04/13 03:08:53;;;;;;;;;;;;;;;10.78;59.55;98889.00;4469184;32;33561;-76
2023/04/13 03:11:22;;;;;;;;;;;;;;;10.80;58.57;98892.53;4469341;32;34592;-76
2023/04/13 03:13:53;;;;;;;;;;;;;;;10.68;57.91;98892.19;4468927;32;34150;-76
2023/04/13 03:16:20;;;;;;;;;;;;;;;10.49;56.34;98889.84;4460668;32;32937;-76
2023/04/13 03:18:48;;;;;;;;;;;;;;;10.58;56.18;98884.94;4457505;32;34826;-76
2023/04/13 03:21:16;;;;;;;;;;;;;;;10.42;55.59;98887.06;4468886;32;34041;-76
2023/04/13 03:23:43;;;;;;;;;;;;;;;10.62;56.90;98891.97;4468509;32;34163;-76
2023/04/13 03:26:10;;;;;;;;;;;;;;;10.68;56.68;98894.78;4468746;32;34656;-76
2023/04/13 03:28:38;;;;;;;;;;;;;;;10.43;55.48;98885.38;4464059;32;34730;-76
2023/04/13 03:31:07;;;;;;;;;;;;;;;10.57;55.38;98880.63;4469255;32;34157;-76
2023/04/13 03:33:34;;;;;;;;;;;;;;;10.61;56.51;98883.34;4469092;32;34364;-76
2023/04/13 03:36:02;;;;;;;;;;;;;;;10.61;55.57;98891.09;4462926;32;33090;-76
2023/04/13 03:38:30;;;;;;;;;;;;;;;10.57;55.05;98880.63;4462269;32;34966;-76
2023/04/13 03:40:58;;;;;;;;;;;;;;;10.49;54.99;98879.47;4462678;32;33830;-76
2023/04/13 03:43:26;;;;;;;;;;;;;;;10.26;55.01;98887.41;4469219;32;33881;-76
2023/04/13 03:45:56;;;;;;;;;;;;;;;10.48;54.02;98875.16;4458212;32;33598;-76
2023/04/13 03:48:23;;;;;;;;;;;;;;;10.24;53.79;98886.50;4468874;32;34307;-76
2023/04/13 03:50:51;;;;;;;;;;;;;;;10.17;53.93;98881.94;4467955;32;34464;-76
2023/04/13 03:53:19;;;;;;;;;;;;;;;10.19;53.23;98877.69;4469099;32;34696;-76
2023/04/13 03:55:47;;;;;;;;;;;;;;;9.98;53.90;98876.16;4469208;32;32899;-76
2023/04/13 03:58:15;;;;;;;;;;;;;;;10.13;53.05;98880.09;4468784;32;34940;-76
2023/04/13 04:00:42;;;;;;;;;;;;;;;10.19;52.69;98870.78;4467718;32;34264;-76
2023/04/13 04:03:10;;;;;;;;;;;;;;;10.06;52.52;98878.13;4466086;32;34380;-76
2023/04/13 04:05:39;;;;;;;;;;;;;;;10.01;52.07;98876.28;4464105;32;33301;-76
2023/04/13 04:08:06;;;;;;;;;;;;;;;10.24;51.61;98878.72;4461352;32;34254;-76
2023/04/13 04:10:34;;;;;;;;;;;;;;;10.37;51.03;98880.91;4452985;32;34754;-76
2023/04/13 04:13:01;;;;;;;;;;;;;;;10.07;52.05;98879.91;4452590;32;34265;-76
2023/04/13 04:15:29;;;;;;;;;;;;;;;10.25;51.69;98885.63;4460222;32;35372;-76
2023/04/13 04:17:58;;;;;;;;;;;;;;;10.15;51.48;98888.78;4452426;32;34597;-77
2023/04/13 04:20:25;;;;;;;;;;;;;;;10.18;50.80;98888.87;4453299;32;33993;-76
2023/04/13 04:22:52;;;;;;;;;;;;;;;10.14;50.76;98887.91;4452621;32;33245;-76
2023/04/13 04:25:26;;;;;;;;;;;;;;;10.20;50.62;98882.91;4454363;32;33139;-76
2023/04/13 04:27:56;;;;;;;;;;;;;;;10.21;50.47;98888.97;4463675;32;34168;-76
2023/04/13 04:30:28;;;;;;;;;;;;;;;10.41;50.01;98881.84;4453122;32;34018;-76
2023/04/13 04:32:57;;;;;;;;;;;;;;;10.26;50.29;98894.28;4445241;32;34226;-76
2023/04/13 04:35:33;;;;;;;;;;;;;;;10.40;50.25;98882.69;4441966;32;33914;-76
2023/04/13 04:38:03;;;;;;;;;;;;;;;10.82;48.96;98879.63;4454765;32;34519;-76
2023/04/13 04:40:34;;;;;;;;;;;;;;;10.45;49.75;98888.00;4454392;32;35082;-76
2023/04/13 04:43:03;;;;;;;;;;;;;;;10.52;48.89;98887.34;4442211;32;34781;-76
2023/04/13 04:45:35;;;;;;;;;;;;;;;10.54;49.71;98883.09;4441444;32;33190;-76
2023/04/13 04:48:02;;;;;;;;;;;;;;;10.49;49.01;98889.84;4454571;32;34156;-76
2023/04/13 04:50:32;;;;;;;;;;;;;;;10.75;48.42;98893.22;4454519;32;34054;-76
2023/04/13 04:52:59;;;;;;;;;;;;;;;10.43;49.85;98891.44;4454760;32;34200;-76
2023/04/13 04:55:27;;;;;;;;;;;;;;;10.47;49.60;98894.09;4454600;32;33281;-76
2023/04/13 04:57:55;;;;;;;;;;;;;;;10.86;48.49;98896.16;4454342;32;34931;-77
2023/04/13 05:00:25;;;;;;;;;;;;;;;11.18;47.96;98895.34;4447423;32;35052;-75
2023/04/13 05:02:56;;;;;;;;;;;;;;;11.28;48.09;98890.38;4458478;32;34388;-75
2023/04/13 05:05:24;;;;;;;;;;;;;;;11.27;47.81;98883.47;4454885;32;33631;-75
2023/04/13 05:07:52;;;;;;;;;;;;;;;10.97;47.60;98879.16;4458316;32;34790;-75
2023/04/13 05:10:19;;;;;;;;;;;;;;;10.91;48.49;98879.00;4466667;32;34932;-76
2023/04/13 05:12:49;;;;;;;;;;;;;;;10.75;49.04;98888.91;4470292;32;33200;-76
2023/04/13 05:15:16;;;;;;;;;;;;;;;10.83;49.12;98883.97;4469484;32;33278;-76
2023/04/13 05:17:45;;;;;;;;;;;;;;;10.97;48.31;98884.34;4464120;32;33276;-75
2023/04/13 05:20:13;;;;;;;;;;;;;;;11.14;47.69;98888.28;4466458;32;34040;-75
2023/04/13 05:22:41;;;;;;;;;;;;;;;11.33;47.57;98891.41;4469228;32;33965;-76
2023/04/13 05:25:09;;;;;;;;;;;;;;;11.61;47.33;98898.22;4469848;32;33228;-76
2023/04/13 05:27:37;;;;;;;;;;;;;;;11.36;47.53;98899.28;4468031;32;33935;-76
2023/04/13 05:30:04;;;;;;;;;;;;;;;11.67;46.70;98905.28;4468668;32;35010;-76
2023/04/13 05:32:33;;;;;;;;;;;;;;;11.48;47.46;98909.09;4468684;32;34679;-76
2023/04/13 05:35:01;;;;;;;;;;;;;;;12.04;46.31;98901.03;4469423;32;32943;-76
2023/04/13 05:37:29;;;;;;;;;;;;;;;11.99;47.08;98899.22;4468569;32;34034;-77
2023/04/13 05:39:57;;;;;;;;;;;;;;;11.57;47.07;98899.84;4469245;32;34304;-76
2023/04/13 05:42:26;;;;;;;;;;;;;;;11.96;46.13;98899.12;4469652;32;33584;-77
2023/04/13 05:44:54;;;;;;;;;;;;;;;11.94;46.64;98906.00;4469291;32;32721;-76
2023/04/13 05:47:22;;;;;;;;;;;;;;;12.15;46.12;98899.59;4467517;32;33970;-76
2023/04/13 05:49:51;;;;;;;;;;;;;;;12.20;45.56;98898.81;4469335;32;34550;-76
2023/04/13 05:52:20;;;;;;;;;;;;;;;12.32;44.71;98903.47;4469602;32;35142;-76
2023/04/13 05:54:49;;;;;;;;;;;;;;;11.85;46.36;98900.53;4466816;32;33562;-76
2023/04/13 05:57:19;;;;;;;;;;;;;;;11.99;46.15;98899.22;4469178;32;34190;-76
2023/04/13 05:59:47;;;;;;;;;;;;;;;12.07;46.20;98895.91;4454305;32;33218;-76
2023/04/13 06:02:17;;;;;;;;;;;;;;;11.98;46.47;98896.56;4469214;32;34281;-76
2023/04/13 06:04:45;;;;;;;;;;;;;;;11.88;46.27;98890.25;4469631;32;33471;-76
2023/04/13 06:07:15;;;;;;;;;;;;;;;12.03;45.81;98899.28;4470859;32;33856;-76
2023/04/13 06:09:42;;;;;;;;;;;;;;;12.18;45.49;98894.44;4469138;32;33803;-76
2023/04/13 06:12:09;;;;;;;;;;;;;;;12.17;45.63;98900.50;4471890;32;34661;-76
2023/04/13 06:14:37;;;;;;;;;;;;;;;12.36;44.64;98894.00;4473284;32;32978;-77
2023/04/13 06:17:04;;;;;;;;;;;;;;;12.47;44.12;98891.66;4470370;32;34693;-76
2023/04/13 06:19:32;;;;;;;;;;;;;;;12.59;43.84;98884.12;4473855;32;34949;-77
2023/04/13 06:21:59;;;;;;;;;;;;;;;12.50;44.60;98886.53;4471241;32;34083;-76
2023/04/13 06:24:29;;;;;;;;;;;;;;;12.96;43.48;98895.28;4466110;32;33083;-77
2023/04/13 06:26:57;;;;;;;;;;;;;;;12.94;44.39;98899.59;4465665;32;34044;-76
2023/04/13 06:29:25;;;;;;;;;;;;;;;13.16;43.71;98900.91;4469392;32;34097;-76
2023/04/13 06:31:53;;;;;;;;;;;;;;;13.28;43.15;98902.87;4441765;32;32240;-76
2023/04/13 06:34:20;;;;;;;;;;;;;;;13.40;42.67;98897.94;4475707;32;33047;-76
2023/04/13 06:36:48;;;;;;;;;;;;;;;13.21;43.12;98901.00;4474068;32;34868;-76
2023/04/13 06:39:16;;;;;;;;;;;;;;;13.39;42.09;98909.19;4473127;32;34178;-77
2023/04/13 06:41:44;;;;;;;;;;;;;;;13.78;41.73;98918.56;4457138;32;33437;-76
2023/04/13 06:44:12;;;;;;;;;;;;;;;13.52;42.33;98911.19;4471906;32;34252;-76
2023/04/13 06:46:41;;;;;;;;;;;;;;;13.48;41.95;98913.69;4471627;32;34367;-76
2023/04/13 06:49:10;;;;;;;;;;;;;;;13.55;42.87;98911.22;4471891;32;35024;-77
2023/04/13 06:51:38;;;;;;;;;;;;;;;13.63;41.86;98915.69;4473266;32;34303;-77
2023/04/13 06:54:05;;;;;;;;;;;;;;;13.79;41.71;98917.75;4474672;32;33296;-76
2023/04/13 06:56:36;;;;;;;;;;;;;;;13.89;41.31;98911.84;4473812;32;33077;-77
2023/04/13 06:59:03;;;;;;;;;;;;;;;14.38;40.51;98910.87;4471523;32;33983;-77
2023/04/13 07:01:31;;;;;;;;;;;;;;;14.47;41.01;98911.87;4456265;32;33003;-77
2023/04/13 07:04:01;;;;;;;;;;;;;;;14.64;39.96;98914.78;4472953;32;33162;-77
2023/04/13 07:06:31;;;;;;;;;;;;;;;14.57;40.52;98907.72;4457278;32;34865;-77
2023/04/13 07:08:58;;;;;;;;;;;;;;;14.64;40.58;98912.19;4474385;32;33881;-76
2023/04/13 07:11:26;;;;;;;;;;;;;;;14.78;39.51;98916.72;4474042;32;34882;-76
2023/04/13 07:13:53;;;;;;;;;;;;;;;14.11;41.85;98927.81;4476723;32;32993;-77
2023/04/13 07:16:23;;;;;;;;;;;;;;;14.15;40.19;98925.28;4472405;32;33926;-76
2023/04/13 07:18:51;;;;;;;;;;;;;;;14.75;39.26;98923.59;4471371;32;34119;-76
2023/04/13 07:21:18;;;;;;;;;;;;;;;14.50;39.77;98924.94;4473412;32;33935;-77
2023/04/13 07:23:46;;;;;;;;;;;;;;;14.83;40.79;98928.06;4474005;32;32511;-76
2023/04/13 07:26:14;;;;;;;;;;;;;;;14.78;40.43;98928.00;4470535;32;33729;-76
2023/04/13 07:28:42;;;;;;;;;;;;;;;15.13;39.71;98925.84;4469385;32;34303;-77
2023/04/13 07:31:10;;;;;;;;;;;;;;;15.26;39.61;98925.97;4471525;32;34394;-77
2023/04/13 07:33:38;;;;;;;;;;;;;;;15.52;39.14;98924.56;4480990;32;34396;-76
2023/04/13 07:36:07;;;;;;;;;;;;;;;15.57;39.65;98928.94;4476696;32;33421;-77
2023/04/13 07:38:36;;;;;;;;;;;;;;;15.05;41.68;98924.03;4471230;32;33782;-77
2023/04/13 07:41:04;;;;;;;;;;;;;;;15.72;39.04;98927.37;4470071;32;34567;-75
2023/04/13 07:43:33;;;;;;;;;;;;;;;14.78;41.09;98933.22;4469371;32;33070;-77
2023/04/13 07:46:10;;;;;;;;;;;;;;;15.13;40.07;98931.06;4470005;32;34234;-76
2023/04/13 07:48:39;;;;;;;;;;;;;;;15.80;39.10;98930.09;4457388;32;34066;-76
2023/04/13 07:51:16;;;;;;;;;;;;;;;15.29;39.93;98926.91;4470841;32;34085;-76
2023/04/13 07:53:44;;;;;;;;;;;;;;;14.29;39.60;98938.56;4472082;32;33495;-76
2023/04/13 07:56:13;;;;;;;;;;;;;;;14.91;40.06;98937.75;4467542;32;33026;-77
2023/04/13 07:58:40;;;;;;;;;;;;;;;14.67;41.09;98935.66;4468463;32;34102;-76
2023/04/13 08:01:08;;;;;;;;;;;;;;;15.47;40.43;98936.69;4475440;32;33885;-76
2023/04/13 08:03:36;;;;;;;;;;;;;;;15.19;39.25;98927.66;4472328;32;32869;-77
2023/04/13 08:06:08;;;;;;;;;;;;;;;14.97;40.69;98939.56;4471622;32;33560;-76
2023/04/13 08:08:36;;;;;;;;;;;;;;;14.91;40.18;98929.03;4444616;32;34128;-76
2023/04/13 08:11:03;;;;;;;;;;;;;;;13.64;41.83;98927.88;4452926;32;34004;-76
2023/04/13 08:13:32;;;;;;;;;;;;;;;14.25;40.88;98934.13;4450067;32;32937;-76
2023/04/13 08:16:00;;;;;;;;;;;;;;;13.69;41.48;98928.81;4451029;32;34002;-76
2023/04/13 08:18:28;;;;;;;;;;;;;;;13.94;42.51;98936.22;4450404;32;33634;-75
2023/04/13 08:20:55;;;;;;;;;;;;;;;14.93;40.32;98928.22;4451160;32;34133;-76
2023/04/13 08:23:24;;;;;;;;;;;;;;;15.08;39.89;98926.66;4452244;32;33641;-76
2023/04/13 08:25:51;;;;;;;;;;;;;;;14.67;39.96;98924.38;4443184;32;34320;-75
2023/04/13 08:28:19;;;;;;;;;;;;;;;15.07;39.02;98925.78;4451142;32;33571;-76
2023/04/13 08:30:47;;;;;;;;;;;;;;;15.31;38.54;98924.31;4451962;32;34704;-76
2023/04/13 08:33:14;;;;;;;;;;;;;;;14.72;39.77;98933.13;4449830;32;34058;-76
2023/04/13 08:35:41;;;;;;;;;;;;;;;14.75;40.75;98933.16;4452193;32;34371;-75
2023/04/13 08:38:09;;;;;;;;;;;;;;;16.04;38.73;98923.34;4452952;32;33887;-75
2023/04/13 08:40:38;;;;;;;;;;;;;;;16.23;37.22;98920.03;4449618;32;33404;-76
2023/04/13 08:43:06;;;;;;;;;;;;;;;15.84;39.18;98918.81;4450162;32;34097;-76
2023/04/13 08:45:34;;;;;;;;;;;;;;;15.88;39.39;98923.22;4451009;32;33918;-76
2023/04/13 08:48:01;;;;;;;;;;;;;;;16.12;39.81;98916.44;4451108;32;33681;-76
2023/04/13 08:50:30;;;;;;;;;;;;;;;15.89;39.86;98919.72;4452581;32;34006;-76
2023/04/13 08:52:58;;;;;;;;;;;;;;;16.07;38.64;98910.28;4448203;32;33600;-75
2023/04/13 08:55:26;;;;;;;;;;;;;;;16.91;38.62;98910.03;4450925;32;33869;-76
2023/04/13 08:57:53;;;;;;;;;;;;;;;17.29;36.16;98911.94;4450955;32;34255;-76
2023/04/13 09:00:22;;;;;;;;;;;;;;;17.29;37.09;98906.72;4446716;32;33858;-74
2023/04/13 09:02:57;;;;;;;;;;;;;;;17.56;35.65;98902.41;4440639;32;33520;-74
2023/04/13 09:05:33;;;;;;;;;;;;;;;17.62;36.32;98905.91;4447218;32;34204;-75
2023/04/13 09:08:03;;;;;;;;;;;;;;;17.68;34.97;98905.06;4420590;32;894492;-75
2023/04/13 09:10:30;;;;;;;;;;;;;;;17.77;35.83;98905.09;4452160;32;33776;-76
2023/04/13 09:12:58;;;;;;;;;;;;;;;16.38;36.65;98902.69;4454453;32;34070;-76
2023/04/13 09:15:26;;;;;;;;;;;;;;;17.36;34.84;98905.84;4447243;32;35447;-76
2023/04/13 09:17:54;;;;;;;;;;;;;;;17.73;35.69;98902.44;4458341;32;33496;-75
2023/04/13 09:20:22;;;;;;;;;;;;;;;16.55;35.19;98895.84;4471012;32;34693;-75
2023/04/13 09:22:50;;;;;;;;;;;;;;;16.66;36.07;98906.38;4473085;32;33104;-75
2023/04/13 09:25:24;;;;;;;;;;;;;;;16.47;35.53;98903.63;4469016;32;34636;-76
2023/04/13 09:27:52;;;;;;;;;;;;;;;16.85;36.68;98899.53;4467324;32;34380;-76
2023/04/13 09:30:23;;;;;;;;;;;;;;;16.24;37.52;98908.69;4457285;32;33949;-76
2023/04/13 09:33:06;;;;;;;;;;;;;;;15.70;37.90;98912.53;4471542;32;33141;-76
2023/04/13 09:35:34;;;;;;;;;;;;;;;16.51;37.77;98899.31;4468285;32;33936;-76
2023/04/13 09:38:03;;;;;;;;;;;;;;;17.40;36.02;98894.53;4468730;32;34048;-76
2023/04/13 09:40:31;;;;;;;;;;;;;;;17.25;35.94;98894.50;4467057;32;33534;-78
2023/04/13 09:43:03;;;;;;;;;;;;;;;17.19;35.14;98894.44;4456972;32;34150;-78
2023/04/13 09:45:34;;;;;;;;;;;;;;;17.27;35.19;98903.22;4457814;32;34468;-76
2023/04/13 09:48:02;;;;;;;;;;;;;;;18.13;35.34;98902.50;4463466;32;34522;-78
2023/04/13 09:50:32;;;;;;;;;;;;;;;17.31;35.31;98904.97;4471239;32;33889;-78
2023/04/13 09:53:00;;;;;;;;;;;;;;;18.01;35.14;98903.37;4468967;32;34091;-76
2023/04/13 09:55:28;;;;;;;;;;;;;;;17.14;36.73;98901.41;4446775;32;34189;-77
2023/04/13 09:57:55;;;;;;;;;;;;;;;16.28;36.82;98894.81;4446381;32;33890;-74
2023/04/13 10:00:24;;;;;;;;;;;;;;;16.91;37.04;98889.09;4445835;32;35285;-78
2023/04/13 10:02:51;;;;;;;;;;;;;;;17.38;38.10;98896.25;4456126;32;34125;-75
2023/04/13 10:05:19;;;;;;;;;;;;;;;18.07;35.79;98887.66;4465875;32;33693;-77
2023/04/13 10:07:47;;;;;;;;;;;;;;;18.13;34.45;98892.88;4456550;32;34855;-78
2023/04/13 10:10:15;;;;;;;;;;;;;;;18.15;34.08;98900.75;4453547;32;34373;-78
2023/04/13 10:12:45;;;;;;;;;;;;;;;16.59;37.49;98897.63;4444828;32;33882;-78
2023/04/13 10:15:23;;;;;;;;;;;;;;;16.34;38.46;98900.94;4451044;32;33953;-77
2023/04/13 10:17:54;;;;;;;;;;;;;;;17.53;36.51;98900.66;4443528;32;33662;-77
2023/04/13 10:20:21;;;;;;;;;;;;;;;16.75;36.02;98893.38;4453547;32;33983;-77
2023/04/13 10:22:48;;;;;;;;;;;;;;;15.98;36.46;98902.41;4453512;32;32901;-77
2023/04/13 10:25:17;;;;;;;;;;;;;;;15.57;37.17;98900.22;4441314;32;34526;-77
2023/04/13 10:27:58;;;;;;;;;;;;;;;15.68;39.20;98904.72;4452481;32;33759;-76
2023/04/13 10:30:27;;;;;;;;;;;;;;;16.43;37.10;98896.63;4451780;32;34207;-76
2023/04/13 10:33:05;;;;;;;;;;;;;;;16.65;37.89;98897.66;4437266;32;34053;-78
2023/04/13 10:35:33;;;;;;;;;;;;;;;16.41;38.06;98897.50;4435763;32;34919;-77
2023/04/13 10:38:00;;;;;;;;;;;;;;;16.89;37.78;98896.06;4453053;32;34785;-76
2023/04/13 10:40:28;;;;;;;;;;;;;;;17.16;36.77;98894.44;4452073;32;34117;-75
2023/04/13 10:42:55;;;;;;;;;;;;;;;16.84;37.84;98897.78;4452248;32;33080;-75
2023/04/13 10:45:24;;;;;;;;;;;;;;;17.55;36.36;98903.28;4427355;32;34065;-76
2023/04/13 10:47:53;;;;;;;;;;;;;;;16.53;38.48;98902.81;4448338;32;34955;-76
2023/04/13 10:50:22;;;;;;;;;;;;;;;16.24;37.52;98889.53;4421635;32;35020;-75
2023/04/13 10:53:03;;;;;;;;;;;;;;;16.18;40.29;98890.38;4449798;32;32822;-75
2023/04/13 10:55:31;;;;;;;;;;;;;;;16.85;38.45;98889.09;4434676;32;32748;-76
2023/04/13 10:57:59;;;;;;;;;;;;;;;17.84;37.78;98875.41;4449815;32;34960;-77
2023/04/13 11:00:29;;;;;;;;;;;;;;;18.25;36.56;98877.16;4450255;32;34875;-78
2023/04/13 11:03:15;;;;;;;;;;;;;;;17.16;38.38;98878.75;4449036;32;33303;-76
2023/04/13 11:05:44;;;;;;;;;;;;;;;18.40;36.06;98867.53;4436789;32;34768;-76
2023/04/13 11:08:17;;;;;;;;;;;;;;;18.78;35.99;98863.94;4433746;32;33959;-77
2023/04/13 11:10:51;;;;;;;;;;;;;;;18.54;36.72;98878.84;4466546;32;34964;-77
2023/04/13 11:13:19;;;;;;;;;;;;;;;17.94;37.31;98880.66;4466670;32;34084;-78
2023/04/13 11:15:48;;;;;;;;;;;;;;;18.95;36.42;98867.41;4455392;32;34816;-77
2023/04/13 11:18:23;;;;;;;;;;;;;;;18.99;35.30;98863.03;4466588;32;34976;-78
2023/04/13 11:20:50;;;;;;;;;;;;;;;19.01;36.78;98863.88;4452836;32;33424;-78
2023/04/13 11:23:18;;;;;;;;;;;;;;;17.95;38.98;98867.56;4467133;32;33205;-78
2023/04/13 11:25:51;;;;;;;;;;;;;;;17.51;39.37;98859.63;4463860;32;33792;-79
2023/04/13 11:28:18;;;;;;;;;;;;;;;17.80;37.96;98855.28;4450436;32;33927;-79
2023/04/13 11:30:55;;;;;;;;;;;;;;;18.14;39.33;98857.06;4463228;32;33491;-79
2023/04/13 11:33:23;;;;;;;;;;;;;;;18.17;36.18;98851.81;4453718;32;31965;-77
2023/04/13 11:35:51;;;;;;;;;;;;;;;17.81;38.46;98858.78;4466988;32;35425;-77
2023/04/13 11:38:22;;;;;;;;;;;;;;;17.76;39.31;98853.56;4451182;32;33721;-78
2023/04/13 11:40:50;;;;;;;;;;;;;;;18.33;36.21;98842.19;4467494;32;33926;-78
2023/04/13 11:43:27;;;;;;;;;;;;;;;18.94;35.84;98841.16;4464748;32;34326;-78
2023/04/13 11:45:55;;;;;;;;;;;;;;;19.45;34.72;98850.53;4468033;32;33873;-78
2023/04/13 11:48:22;;;;;;;;;;;;;;;18.52;34.80;98841.25;4458446;32;34754;-77
2023/04/13 11:50:50;;;;;;;;;;;;;;;18.18;35.12;98843.97;4457591;32;32410;-78
2023/04/13 11:53:17;;;;;;;;;;;;;;;17.93;36.06;98842.25;4451421;32;31648;-79
2023/04/13 11:55:44;;;;;;;;;;;;;;;18.30;34.64;98832.59;4451180;32;34359;-77
2023/04/13 11:58:20;;;;;;;;;;;;;;;19.51;33.99;98841.72;4451086;32;34675;-77
2023/04/13 12:00:47;;;;;;;;;;;;;;;18.45;35.91;98836.94;4456461;32;32232;-77
2023/04/13 12:03:16;;;;;;;;;;;;;;;18.53;36.00;98834.28;4452607;32;33826;-77
2023/04/13 12:05:46;;;;;;;;;;;;;;;18.97;33.97;98831.53;4466269;32;32398;-77
2023/04/13 12:08:24;;;;;;;;;;;;;;;17.63;34.75;98833.47;4466526;32;34604;-77
2023/04/13 12:11:00;;;;;;;;;;;;;;;17.66;37.03;98834.34;4466321;32;33963;-77
2023/04/13 12:13:37;;;;;;;;;;;;;;;17.31;35.64;98829.06;4467026;32;33294;-77
2023/04/13 12:16:22;;;;;;;;;;;;;;;17.04;37.89;98830.72;4468238;32;34143;-77
2023/04/13 12:19:10;;;;;;;;;;;;;;;17.34;38.89;98818.59;4446510;32;34109;-77
2023/04/13 12:21:48;;;;;;;;;;;;;;;17.27;38.46;98819.47;4468091;32;33872;-77
2023/04/13 12:24:16;;;;;;;;;;;;;;;17.25;37.59;98819.44;4457039;32;32646;-78
2023/04/13 12:26:45;;;;;;;;;;;;;;;16.46;37.60;98822.63;4450434;32;34915;-77
2023/04/13 12:29:15;;;;;;;;;;;;;;;16.90;36.97;98819.34;4467885;32;33372;-76
2023/04/13 12:31:44;;;;;;;;;;;;;;;17.92;34.99;98814.28;4467368;32;34481;-76
2023/04/13 12:34:11;;;;;;;;;;;;;;;18.82;33.83;98792.25;4465546;32;34223;-77
2023/04/13 12:36:39;;;;;;;;;;;;;;;18.00;36.63;98791.56;4464504;32;34875;-77
2023/04/13 12:39:06;;;;;;;;;;;;;;;17.33;36.75;98798.53;4465184;32;34284;-77
2023/04/13 12:41:34;;;;;;;;;;;;;;;17.85;36.69;98795.97;4467417;32;34291;-77
2023/04/13 12:44:01;;;;;;;;;;;;;;;18.47;34.83;98798.47;4468442;32;33150;-77
2023/04/13 12:46:28;;;;;;;;;;;;;;;18.10;34.92;98793.31;4466962;32;34150;-77
2023/04/13 12:48:57;;;;;;;;;;;;;;;17.99;36.61;98792.47;4465505;32;33379;-76
2023/04/13 12:51:25;;;;;;;;;;;;;;;18.00;36.58;98787.22;4464486;32;33774;-77
2023/04/13 12:53:52;;;;;;;;;;;;;;;18.13;36.56;98782.81;4466942;32;33157;-78
2023/04/13 12:56:21;;;;;;;;;;;;;;;17.53;35.73;98789.81;4467902;32;33978;-77